sensor_id;sensor_type;location;lat;lon;timestamp;P1;durP1;ratioP1;P2;durP2;ratioP2
76157;SDS011;64907;51.574;6.502;2023-02-07T00:00:00;64.20;;;22.58;;
76157;SDS011;64907;51.574;6.502;2023-02-07T00:02:25;65.10;;;21.73;;
76157;SDS011;64907;51.574;6.502;2023-02-07T00:04:51;53.55;;;20.92;;
76157;SDS011;64907;51.574;6.502;2023-02-07T00:07:16;52.55;;;20.17;;
76157;SDS011;64907;51.574;6.502;2023-02-07T00:09:41;48.17;;;19.35;;
76157;SDS011;64907;51.574;6.502;2023-02-07T00:12:06;54.95;;;18.90;;
76157;SDS011;64907;51.574;6.502;2023-02-07T00:14:31;47.90;;;20.05;;
76157;SDS011;64907;51.574;6.502;2023-02-07T00:16:57;51.03;;;19.85;;
76157;SDS011;64907;51.574;6.502;2023-02-07T00:19:22;41.83;;;18.63;;
76157;SDS011;64907;51.574;6.502;2023-02-07T00:21:47;41.55;;;18.23;;
76157;SDS011;64907;51.574;6.502;2023-02-07T00:24:12;50.03;;;18.95;;
76157;SDS011;64907;51.574;6.502;2023-02-07T00:26:38;51.10;;;19.17;;
76157;SDS011;64907;51.574;6.502;2023-02-07T00:29:03;52.88;;;20.92;;
76157;SDS011;64907;51.574;6.502;2023-02-07T00:31:30;47.33;;;19.20;;
76157;SDS011;64907;51.574;6.502;2023-02-07T00:33:56;52.45;;;19.85;;
76157;SDS011;64907;51.574;6.502;2023-02-07T00:36:22;56.45;;;21.52;;
76157;SDS011;64907;51.574;6.502;2023-02-07T00:38:48;52.53;;;20.42;;
76157;SDS011;64907;51.574;6.502;2023-02-07T00:41:13;39.33;;;18.20;;
76157;SDS011;64907;51.574;6.502;2023-02-07T00:43:41;45.33;;;18.92;;
76157;SDS011;64907;51.574;6.502;2023-02-07T00:46:09;58.78;;;21.33;;
76157;SDS011;64907;51.574;6.502;2023-02-07T00:48:35;58.58;;;21.52;;
76157;SDS011;64907;51.574;6.502;2023-02-07T00:51:00;60.35;;;20.98;;
76157;SDS011;64907;51.574;6.502;2023-02-07T00:53:26;54.42;;;22.48;;
76157;SDS011;64907;51.574;6.502;2023-02-07T00:55:52;62.38;;;21.70;;
76157;SDS011;64907;51.574;6.502;2023-02-07T00:58:17;59.45;;;23.25;;
76157;SDS011;64907;51.574;6.502;2023-02-07T01:00:42;54.28;;;21.60;;
76157;SDS011;64907;51.574;6.502;2023-02-07T01:03:10;60.60;;;22.43;;
76157;SDS011;64907;51.574;6.502;2023-02-07T01:05:35;61.78;;;22.85;;
76157;SDS011;64907;51.574;6.502;2023-02-07T01:08:02;58.08;;;21.42;;
76157;SDS011;64907;51.574;6.502;2023-02-07T01:10:27;68.82;;;24.10;;
76157;SDS011;64907;51.574;6.502;2023-02-07T01:12:55;67.45;;;24.63;;
76157;SDS011;64907;51.574;6.502;2023-02-07T01:15:21;74.03;;;27.13;;
76157;SDS011;64907;51.574;6.502;2023-02-07T01:17:46;73.10;;;27.38;;
76157;SDS011;64907;51.574;6.502;2023-02-07T01:20:11;70.53;;;27.05;;
76157;SDS011;64907;51.574;6.502;2023-02-07T01:22:42;67.18;;;25.80;;
76157;SDS011;64907;51.574;6.502;2023-02-07T01:25:08;73.68;;;26.10;;
76157;SDS011;64907;51.574;6.502;2023-02-07T01:27:33;65.65;;;27.27;;
76157;SDS011;64907;51.574;6.502;2023-02-07T01:29:59;65.00;;;24.92;;
76157;SDS011;64907;51.574;6.502;2023-02-07T01:32:24;63.95;;;24.33;;
76157;SDS011;64907;51.574;6.502;2023-02-07T01:34:49;75.47;;;29.08;;
76157;SDS011;64907;51.574;6.502;2023-02-07T01:37:14;66.72;;;26.35;;
76157;SDS011;64907;51.574;6.502;2023-02-07T01:39:39;75.80;;;27.73;;
76157;SDS011;64907;51.574;6.502;2023-02-07T01:42:04;76.15;;;28.15;;
76157;SDS011;64907;51.574;6.502;2023-02-07T01:47:01;83.88;;;30.58;;
76157;SDS011;64907;51.574;6.502;2023-02-07T01:49:28;97.72;;;36.50;;
76157;SDS011;64907;51.574;6.502;2023-02-07T01:51:55;115.45;;;38.92;;
76157;SDS011;64907;51.574;6.502;2023-02-07T01:54:23;105.35;;;38.40;;
76157;SDS011;64907;51.574;6.502;2023-02-07T01:56:51;115.53;;;42.15;;
76157;SDS011;64907;51.574;6.502;2023-02-07T01:59:18;116.18;;;41.28;;
76157;SDS011;64907;51.574;6.502;2023-02-07T02:01:44;104.93;;;38.05;;
76157;SDS011;64907;51.574;6.502;2023-02-07T02:04:10;105.07;;;41.00;;
76157;SDS011;64907;51.574;6.502;2023-02-07T02:06:35;115.65;;;41.85;;
76157;SDS011;64907;51.574;6.502;2023-02-07T02:09:06;116.22;;;40.25;;
76157;SDS011;64907;51.574;6.502;2023-02-07T02:22:17;142.23;;;48.38;;
76157;SDS011;64907;51.574;6.502;2023-02-07T02:27:31;133.90;;;46.72;;
76157;SDS011;64907;51.574;6.502;2023-02-07T02:33:04;167.20;;;50.97;;
76157;SDS011;64907;51.574;6.502;2023-02-07T02:35:44;161.88;;;51.70;;
76157;SDS011;64907;51.574;6.502;2023-02-07T02:38:20;152.77;;;50.47;;
76157;SDS011;64907;51.574;6.502;2023-02-07T02:40:56;151.40;;;48.13;;
76157;SDS011;64907;51.574;6.502;2023-02-07T02:43:27;156.30;;;50.15;;
76157;SDS011;64907;51.574;6.502;2023-02-07T02:46:02;163.57;;;49.13;;
76157;SDS011;64907;51.574;6.502;2023-02-07T02:48:29;147.18;;;49.13;;
76157;SDS011;64907;51.574;6.502;2023-02-07T02:50:55;128.15;;;44.97;;
76157;SDS011;64907;51.574;6.502;2023-02-07T02:53:20;139.07;;;46.15;;
76157;SDS011;64907;51.574;6.502;2023-02-07T02:55:56;140.43;;;45.13;;
76157;SDS011;64907;51.574;6.502;2023-02-07T03:01:08;136.05;;;46.42;;
76157;SDS011;64907;51.574;6.502;2023-02-07T03:04:00;141.18;;;45.83;;
76157;SDS011;64907;51.574;6.502;2023-02-07T03:09:33;187.25;;;49.47;;
76157;SDS011;64907;51.574;6.502;2023-02-07T03:12:13;278.88;;;55.10;;
76157;SDS011;64907;51.574;6.502;2023-02-07T03:17:16;331.13;;;55.72;;
76157;SDS011;64907;51.574;6.502;2023-02-07T03:19:47;336.63;;;58.55;;
76157;SDS011;64907;51.574;6.502;2023-02-07T03:22:15;432.60;;;63.00;;
76157;SDS011;64907;51.574;6.502;2023-02-07T03:24:48;433.90;;;61.47;;
76157;SDS011;64907;51.574;6.502;2023-02-07T03:27:15;446.98;;;60.78;;
76157;SDS011;64907;51.574;6.502;2023-02-07T03:29:44;428.08;;;61.90;;
76157;SDS011;64907;51.574;6.502;2023-02-07T03:32:10;457.75;;;58.92;;
76157;SDS011;64907;51.574;6.502;2023-02-07T03:34:38;344.95;;;53.65;;
76157;SDS011;64907;51.574;6.502;2023-02-07T03:37:11;456.30;;;64.38;;
76157;SDS011;64907;51.574;6.502;2023-02-07T03:39:38;423.38;;;55.40;;
76157;SDS011;64907;51.574;6.502;2023-02-07T03:42:05;453.60;;;59.78;;
76157;SDS011;64907;51.574;6.502;2023-02-07T03:44:32;392.38;;;55.70;;
76157;SDS011;64907;51.574;6.502;2023-02-07T03:46:58;393.08;;;55.83;;
76157;SDS011;64907;51.574;6.502;2023-02-07T03:49:23;457.52;;;59.80;;
76157;SDS011;64907;51.574;6.502;2023-02-07T03:51:49;358.17;;;52.03;;
76157;SDS011;64907;51.574;6.502;2023-02-07T03:54:15;348.90;;;51.03;;
76157;SDS011;64907;51.574;6.502;2023-02-07T03:56:40;338.23;;;51.47;;
76157;SDS011;64907;51.574;6.502;2023-02-07T03:59:06;304.45;;;53.40;;
76157;SDS011;64907;51.574;6.502;2023-02-07T04:01:32;242.60;;;49.92;;
76157;SDS011;64907;51.574;6.502;2023-02-07T04:03:58;314.15;;;48.05;;
76157;SDS011;64907;51.574;6.502;2023-02-07T04:06:26;397.45;;;57.33;;
76157;SDS011;64907;51.574;6.502;2023-02-07T04:08:51;219.07;;;45.03;;
76157;SDS011;64907;51.574;6.502;2023-02-07T04:11:16;341.52;;;49.65;;
76157;SDS011;64907;51.574;6.502;2023-02-07T04:13:41;364.13;;;52.33;;
76157;SDS011;64907;51.574;6.502;2023-02-07T04:16:07;230.07;;;44.50;;
76157;SDS011;64907;51.574;6.502;2023-02-07T04:18:32;423.13;;;56.60;;
76157;SDS011;64907;51.574;6.502;2023-02-07T04:21:02;381.45;;;50.63;;
76157;SDS011;64907;51.574;6.502;2023-02-07T04:23:28;388.75;;;47.70;;
76157;SDS011;64907;51.574;6.502;2023-02-07T04:25:55;328.80;;;51.97;;
76157;SDS011;64907;51.574;6.502;2023-02-07T04:28:20;304.42;;;47.08;;
76157;SDS011;64907;51.574;6.502;2023-02-07T04:30:46;265.85;;;46.58;;
76157;SDS011;64907;51.574;6.502;2023-02-07T04:33:14;267.77;;;46.05;;
76157;SDS011;64907;51.574;6.502;2023-02-07T04:35:39;268.27;;;45.00;;
76157;SDS011;64907;51.574;6.502;2023-02-07T04:38:05;280.47;;;45.97;;
76157;SDS011;64907;51.574;6.502;2023-02-07T04:40:30;221.63;;;41.17;;
76157;SDS011;64907;51.574;6.502;2023-02-07T04:42:55;197.57;;;42.30;;
76157;SDS011;64907;51.574;6.502;2023-02-07T04:45:20;288.92;;;47.80;;
76157;SDS011;64907;51.574;6.502;2023-02-07T04:47:45;188.23;;;39.03;;
76157;SDS011;64907;51.574;6.502;2023-02-07T04:50:11;138.27;;;35.20;;
76157;SDS011;64907;51.574;6.502;2023-02-07T04:52:36;164.57;;;35.60;;
76157;SDS011;64907;51.574;6.502;2023-02-07T04:55:02;151.05;;;36.95;;
76157;SDS011;64907;51.574;6.502;2023-02-07T04:57:27;125.57;;;33.92;;
76157;SDS011;64907;51.574;6.502;2023-02-07T04:59:52;151.65;;;36.88;;
76157;SDS011;64907;51.574;6.502;2023-02-07T05:02:17;422.88;;;49.65;;
76157;SDS011;64907;51.574;6.502;2023-02-07T05:04:42;158.07;;;36.60;;
76157;SDS011;64907;51.574;6.502;2023-02-07T05:07:08;204.02;;;37.22;;
76157;SDS011;64907;51.574;6.502;2023-02-07T05:09:33;153.13;;;35.72;;
76157;SDS011;64907;51.574;6.502;2023-02-07T05:11:58;233.60;;;34.38;;
76157;SDS011;64907;51.574;6.502;2023-02-07T05:14:23;324.38;;;37.60;;
76157;SDS011;64907;51.574;6.502;2023-02-07T05:16:48;239.85;;;36.95;;
76157;SDS011;64907;51.574;6.502;2023-02-07T05:19:14;246.80;;;37.80;;
76157;SDS011;64907;51.574;6.502;2023-02-07T05:21:39;228.65;;;36.95;;
76157;SDS011;64907;51.574;6.502;2023-02-07T05:24:04;256.77;;;37.50;;
76157;SDS011;64907;51.574;6.502;2023-02-07T05:26:29;175.02;;;36.72;;
76157;SDS011;64907;51.574;6.502;2023-02-07T05:28:58;200.77;;;40.70;;
76157;SDS011;64907;51.574;6.502;2023-02-07T05:31:23;131.10;;;33.95;;
76157;SDS011;64907;51.574;6.502;2023-02-07T05:34:08;261.25;;;40.55;;
76157;SDS011;64907;51.574;6.502;2023-02-07T05:36:33;147.93;;;33.50;;
76157;SDS011;64907;51.574;6.502;2023-02-07T05:38:58;163.95;;;32.10;;
76157;SDS011;64907;51.574;6.502;2023-02-07T05:41:24;80.97;;;29.13;;
76157;SDS011;64907;51.574;6.502;2023-02-07T05:43:49;144.60;;;33.35;;
76157;SDS011;64907;51.574;6.502;2023-02-07T05:46:14;122.28;;;28.73;;
76157;SDS011;64907;51.574;6.502;2023-02-07T05:48:41;232.15;;;34.20;;
76157;SDS011;64907;51.574;6.502;2023-02-07T05:51:06;126.93;;;31.35;;
76157;SDS011;64907;51.574;6.502;2023-02-07T05:53:32;174.80;;;31.15;;
76157;SDS011;64907;51.574;6.502;2023-02-07T05:55:57;165.82;;;32.22;;
76157;SDS011;64907;51.574;6.502;2023-02-07T05:58:22;217.98;;;34.75;;
76157;SDS011;64907;51.574;6.502;2023-02-07T06:00:47;135.18;;;31.92;;
76157;SDS011;64907;51.574;6.502;2023-02-07T06:03:12;407.48;;;47.47;;
76157;SDS011;64907;51.574;6.502;2023-02-07T06:05:43;251.82;;;39.60;;
76157;SDS011;64907;51.574;6.502;2023-02-07T06:08:08;271.42;;;40.10;;
76157;SDS011;64907;51.574;6.502;2023-02-07T06:10:33;262.73;;;39.13;;
76157;SDS011;64907;51.574;6.502;2023-02-07T06:12:58;345.55;;;40.83;;
76157;SDS011;64907;51.574;6.502;2023-02-07T06:15:23;379.10;;;44.75;;
76157;SDS011;64907;51.574;6.502;2023-02-07T06:17:49;170.13;;;33.33;;
76157;SDS011;64907;51.574;6.502;2023-02-07T06:20:14;240.50;;;36.88;;
76157;SDS011;64907;51.574;6.502;2023-02-07T06:22:39;141.50;;;34.55;;
76157;SDS011;64907;51.574;6.502;2023-02-07T06:25:07;134.68;;;33.50;;
76157;SDS011;64907;51.574;6.502;2023-02-07T06:27:35;103.05;;;33.72;;
76157;SDS011;64907;51.574;6.502;2023-02-07T06:30:00;161.93;;;32.88;;
76157;SDS011;64907;51.574;6.502;2023-02-07T06:32:26;93.60;;;32.45;;
76157;SDS011;64907;51.574;6.502;2023-02-07T06:34:51;163.05;;;35.05;;
76157;SDS011;64907;51.574;6.502;2023-02-07T06:37:16;242.48;;;40.67;;
76157;SDS011;64907;51.574;6.502;2023-02-07T06:39:41;110.05;;;31.52;;
76157;SDS011;64907;51.574;6.502;2023-02-07T06:42:07;163.00;;;36.28;;
76157;SDS011;64907;51.574;6.502;2023-02-07T06:44:33;94.80;;;32.30;;
76157;SDS011;64907;51.574;6.502;2023-02-07T06:46:58;155.02;;;37.00;;
76157;SDS011;64907;51.574;6.502;2023-02-07T06:49:24;168.75;;;35.78;;
76157;SDS011;64907;51.574;6.502;2023-02-07T06:51:50;158.73;;;36.53;;
76157;SDS011;64907;51.574;6.502;2023-02-07T06:54:15;106.43;;;34.75;;
76157;SDS011;64907;51.574;6.502;2023-02-07T06:56:40;117.65;;;35.05;;
76157;SDS011;64907;51.574;6.502;2023-02-07T06:59:05;139.27;;;39.77;;
76157;SDS011;64907;51.574;6.502;2023-02-07T07:01:30;92.43;;;35.92;;
76157;SDS011;64907;51.574;6.502;2023-02-07T07:03:56;94.70;;;34.88;;
76157;SDS011;64907;51.574;6.502;2023-02-07T07:06:21;121.35;;;36.78;;
76157;SDS011;64907;51.574;6.502;2023-02-07T07:08:46;83.63;;;34.28;;
76157;SDS011;64907;51.574;6.502;2023-02-07T07:11:12;160.15;;;38.72;;
76157;SDS011;64907;51.574;6.502;2023-02-07T07:13:37;89.13;;;33.20;;
76157;SDS011;64907;51.574;6.502;2023-02-07T07:16:11;101.40;;;34.47;;
76157;SDS011;64907;51.574;6.502;2023-02-07T07:18:36;82.05;;;33.92;;
76157;SDS011;64907;51.574;6.502;2023-02-07T07:21:03;71.60;;;31.67;;
76157;SDS011;64907;51.574;6.502;2023-02-07T07:23:28;123.60;;;36.00;;
76157;SDS011;64907;51.574;6.502;2023-02-07T07:25:53;73.57;;;34.00;;
76157;SDS011;64907;51.574;6.502;2023-02-07T07:28:18;83.40;;;32.17;;
76157;SDS011;64907;51.574;6.502;2023-02-07T07:30:44;91.17;;;32.20;;
76157;SDS011;64907;51.574;6.502;2023-02-07T07:33:09;118.95;;;33.72;;
76157;SDS011;64907;51.574;6.502;2023-02-07T07:35:37;74.03;;;31.50;;
76157;SDS011;64907;51.574;6.502;2023-02-07T07:38:06;73.28;;;31.88;;
76157;SDS011;64907;51.574;6.502;2023-02-07T07:40:31;67.85;;;29.92;;
76157;SDS011;64907;51.574;6.502;2023-02-07T07:42:56;64.35;;;30.17;;
76157;SDS011;64907;51.574;6.502;2023-02-07T07:45:21;68.15;;;29.08;;
76157;SDS011;64907;51.574;6.502;2023-02-07T07:47:47;65.95;;;31.40;;
76157;SDS011;64907;51.574;6.502;2023-02-07T07:50:14;72.15;;;32.20;;
76157;SDS011;64907;51.574;6.502;2023-02-07T07:52:39;60.30;;;28.02;;
76157;SDS011;64907;51.574;6.502;2023-02-07T07:55:04;64.15;;;29.33;;
76157;SDS011;64907;51.574;6.502;2023-02-07T07:57:30;74.80;;;30.88;;
76157;SDS011;64907;51.574;6.502;2023-02-07T07:59:55;74.55;;;33.58;;
76157;SDS011;64907;51.574;6.502;2023-02-07T08:02:20;68.15;;;31.15;;
76157;SDS011;64907;51.574;6.502;2023-02-07T08:04:46;72.55;;;31.15;;
76157;SDS011;64907;51.574;6.502;2023-02-07T08:07:12;73.78;;;32.35;;
76157;SDS011;64907;51.574;6.502;2023-02-07T08:09:37;63.83;;;30.20;;
76157;SDS011;64907;51.574;6.502;2023-02-07T08:12:03;69.75;;;31.80;;
76157;SDS011;64907;51.574;6.502;2023-02-07T08:14:28;64.60;;;32.30;;
76157;SDS011;64907;51.574;6.502;2023-02-07T08:16:53;70.95;;;33.25;;
76157;SDS011;64907;51.574;6.502;2023-02-07T08:19:18;65.57;;;32.28;;
76157;SDS011;64907;51.574;6.502;2023-02-07T08:21:43;57.67;;;30.40;;
76157;SDS011;64907;51.574;6.502;2023-02-07T08:24:09;58.00;;;29.10;;
76157;SDS011;64907;51.574;6.502;2023-02-07T08:26:34;60.95;;;31.52;;
76157;SDS011;64907;51.574;6.502;2023-02-07T08:28:59;60.88;;;30.08;;
76157;SDS011;64907;51.574;6.502;2023-02-07T08:31:24;70.75;;;31.33;;
76157;SDS011;64907;51.574;6.502;2023-02-07T08:33:49;65.63;;;31.70;;
76157;SDS011;64907;51.574;6.502;2023-02-07T08:36:15;65.78;;;30.42;;
76157;SDS011;64907;51.574;6.502;2023-02-07T08:38:41;66.82;;;32.60;;
76157;SDS011;64907;51.574;6.502;2023-02-07T08:41:06;71.70;;;31.45;;
76157;SDS011;64907;51.574;6.502;2023-02-07T08:43:31;65.68;;;31.33;;
76157;SDS011;64907;51.574;6.502;2023-02-07T08:45:56;69.47;;;32.80;;
76157;SDS011;64907;51.574;6.502;2023-02-07T08:48:22;69.28;;;32.92;;
76157;SDS011;64907;51.574;6.502;2023-02-07T08:50:50;77.70;;;35.20;;
76157;SDS011;64907;51.574;6.502;2023-02-07T08:53:15;75.40;;;34.50;;
76157;SDS011;64907;51.574;6.502;2023-02-07T08:55:40;74.35;;;36.35;;
76157;SDS011;64907;51.574;6.502;2023-02-07T08:58:06;76.13;;;35.33;;
76157;SDS011;64907;51.574;6.502;2023-02-07T09:00:32;69.55;;;34.70;;
76157;SDS011;64907;51.574;6.502;2023-02-07T09:02:59;69.90;;;35.38;;
76157;SDS011;64907;51.574;6.502;2023-02-07T09:05:24;74.70;;;34.90;;
76157;SDS011;64907;51.574;6.502;2023-02-07T09:07:49;75.90;;;36.42;;
76157;SDS011;64907;51.574;6.502;2023-02-07T09:10:15;61.75;;;34.53;;
76157;SDS011;64907;51.574;6.502;2023-02-07T09:12:43;63.90;;;32.35;;
76157;SDS011;64907;51.574;6.502;2023-02-07T09:15:08;63.33;;;34.33;;
76157;SDS011;64907;51.574;6.502;2023-02-07T09:17:34;69.53;;;34.03;;
76157;SDS011;64907;51.574;6.502;2023-02-07T09:19:59;63.92;;;33.80;;
76157;SDS011;64907;51.574;6.502;2023-02-07T09:22:25;65.35;;;33.65;;
76157;SDS011;64907;51.574;6.502;2023-02-07T09:24:50;66.22;;;34.67;;
76157;SDS011;64907;51.574;6.502;2023-02-07T09:27:16;64.88;;;35.00;;
76157;SDS011;64907;51.574;6.502;2023-02-07T09:29:49;68.78;;;35.78;;
76157;SDS011;64907;51.574;6.502;2023-02-07T09:32:14;59.72;;;32.90;;
76157;SDS011;64907;51.574;6.502;2023-02-07T09:34:39;64.82;;;31.88;;
76157;SDS011;64907;51.574;6.502;2023-02-07T09:37:04;60.40;;;31.60;;
76157;SDS011;64907;51.574;6.502;2023-02-07T09:39:29;61.50;;;32.47;;
76157;SDS011;64907;51.574;6.502;2023-02-07T09:46:56;67.20;;;32.08;;
76157;SDS011;64907;51.574;6.502;2023-02-07T09:52:11;54.35;;;29.90;;
76157;SDS011;64907;51.574;6.502;2023-02-07T09:54:39;56.60;;;30.40;;
76157;SDS011;64907;51.574;6.502;2023-02-07T09:57:10;61.85;;;31.13;;
76157;SDS011;64907;51.574;6.502;2023-02-07T09:59:41;56.30;;;30.33;;
76157;SDS011;64907;51.574;6.502;2023-02-07T10:02:12;52.90;;;28.58;;
76157;SDS011;64907;51.574;6.502;2023-02-07T10:04:40;49.47;;;28.65;;
76157;SDS011;64907;51.574;6.502;2023-02-07T10:07:14;48.20;;;29.77;;
76157;SDS011;64907;51.574;6.502;2023-02-07T10:09:41;51.83;;;28.15;;
76157;SDS011;64907;51.574;6.502;2023-02-07T10:14:49;55.80;;;29.50;;
76157;SDS011;64907;51.574;6.502;2023-02-07T10:17:22;46.92;;;27.33;;
76157;SDS011;64907;51.574;6.502;2023-02-07T10:20:35;51.33;;;29.60;;
76157;SDS011;64907;51.574;6.502;2023-02-07T10:25:04;53.58;;;31.40;;
76157;SDS011;64907;51.574;6.502;2023-02-07T10:27:34;49.28;;;30.35;;
76157;SDS011;64907;51.574;6.502;2023-02-07T10:32:32;45.38;;;27.98;;
76157;SDS011;64907;51.574;6.502;2023-02-07T10:35:00;59.17;;;30.27;;
76157;SDS011;64907;51.574;6.502;2023-02-07T10:37:28;48.80;;;30.02;;
76157;SDS011;64907;51.574;6.502;2023-02-07T10:42:26;47.47;;;26.77;;
76157;SDS011;64907;51.574;6.502;2023-02-07T10:44:52;50.95;;;26.27;;
76157;SDS011;64907;51.574;6.502;2023-02-07T10:47:17;42.28;;;25.55;;
76157;SDS011;64907;51.574;6.502;2023-02-07T10:49:44;46.60;;;26.67;;
76157;SDS011;64907;51.574;6.502;2023-02-07T10:54:47;35.60;;;21.52;;
76157;SDS011;64907;51.574;6.502;2023-02-07T10:57:15;33.10;;;21.05;;
76157;SDS011;64907;51.574;6.502;2023-02-07T10:59:42;37.50;;;21.58;;
76157;SDS011;64907;51.574;6.502;2023-02-07T11:04:57;29.55;;;17.80;;
76157;SDS011;64907;51.574;6.502;2023-02-07T11:07:24;29.85;;;20.45;;
76157;SDS011;64907;51.574;6.502;2023-02-07T11:09:49;27.65;;;16.52;;
76157;SDS011;64907;51.574;6.502;2023-02-07T11:12:22;24.58;;;15.55;;
76157;SDS011;64907;51.574;6.502;2023-02-07T11:17:23;25.13;;;15.40;;
76157;SDS011;64907;51.574;6.502;2023-02-07T11:19:48;17.23;;;12.40;;
76157;SDS011;64907;51.574;6.502;2023-02-07T11:22:20;19.02;;;12.75;;
76157;SDS011;64907;51.574;6.502;2023-02-07T11:24:46;17.67;;;12.35;;
76157;SDS011;64907;51.574;6.502;2023-02-07T11:27:13;18.52;;;14.35;;
76157;SDS011;64907;51.574;6.502;2023-02-07T11:29:58;16.40;;;11.98;;
76157;SDS011;64907;51.574;6.502;2023-02-07T11:32:25;14.10;;;9.75;;
76157;SDS011;64907;51.574;6.502;2023-02-07T11:34:51;14.77;;;10.15;;
76157;SDS011;64907;51.574;6.502;2023-02-07T11:39:46;14.70;;;10.48;;
76157;SDS011;64907;51.574;6.502;2023-02-07T11:42:12;13.90;;;11.23;;
76157;SDS011;64907;51.574;6.502;2023-02-07T11:44:39;13.07;;;10.98;;
76157;SDS011;64907;51.574;6.502;2023-02-07T11:47:06;16.23;;;10.93;;
76157;SDS011;64907;51.574;6.502;2023-02-07T11:51:59;14.40;;;9.68;;
76157;SDS011;64907;51.574;6.502;2023-02-07T11:54:25;13.27;;;10.38;;
76157;SDS011;64907;51.574;6.502;2023-02-07T11:56:53;11.00;;;9.35;;
76157;SDS011;64907;51.574;6.502;2023-02-07T11:59:26;15.15;;;10.80;;
76157;SDS011;64907;51.574;6.502;2023-02-07T12:01:57;13.77;;;10.13;;
76157;SDS011;64907;51.574;6.502;2023-02-07T12:04:36;12.18;;;9.70;;
76157;SDS011;64907;51.574;6.502;2023-02-07T12:07:02;12.13;;;9.55;;
76157;SDS011;64907;51.574;6.502;2023-02-07T12:12:01;11.88;;;8.73;;
76157;SDS011;64907;51.574;6.502;2023-02-07T12:16:59;11.90;;;8.90;;
76157;SDS011;64907;51.574;6.502;2023-02-07T12:19:33;15.10;;;10.15;;
76157;SDS011;64907;51.574;6.502;2023-02-07T12:22:04;10.07;;;8.38;;
76157;SDS011;64907;51.574;6.502;2023-02-07T12:29:46;10.68;;;8.27;;
76157;SDS011;64907;51.574;6.502;2023-02-07T12:37:20;9.27;;;7.80;;
76157;SDS011;64907;51.574;6.502;2023-02-07T12:42:20;13.80;;;8.00;;
76157;SDS011;64907;51.574;6.502;2023-02-07T12:44:50;19.25;;;8.50;;
76157;SDS011;64907;51.574;6.502;2023-02-07T12:47:20;12.38;;;6.68;;
76157;SDS011;64907;51.574;6.502;2023-02-07T12:49:52;14.05;;;8.13;;
76157;SDS011;64907;51.574;6.502;2023-02-07T12:52:36;8.93;;;6.20;;
76157;SDS011;64907;51.574;6.502;2023-02-07T12:55:09;9.15;;;6.57;;
76157;SDS011;64907;51.574;6.502;2023-02-07T12:57:49;10.73;;;6.03;;
76157;SDS011;64907;51.574;6.502;2023-02-07T13:00:40;8.90;;;6.00;;
76157;SDS011;64907;51.574;6.502;2023-02-07T13:03:24;9.30;;;7.15;;
76157;SDS011;64907;51.574;6.502;2023-02-07T13:08:47;9.13;;;6.35;;
76157;SDS011;64907;51.574;6.502;2023-02-07T13:11:23;12.25;;;5.75;;
76157;SDS011;64907;51.574;6.502;2023-02-07T13:14:10;7.82;;;6.40;;
76157;SDS011;64907;51.574;6.502;2023-02-07T13:16:50;8.57;;;6.53;;
76157;SDS011;64907;51.574;6.502;2023-02-07T13:24:17;11.25;;;6.68;;
76157;SDS011;64907;51.574;6.502;2023-02-07T13:26:46;9.60;;;6.88;;
76157;SDS011;64907;51.574;6.502;2023-02-07T13:29:13;8.88;;;6.50;;
76157;SDS011;64907;51.574;6.502;2023-02-07T13:31:40;8.90;;;6.90;;
76157;SDS011;64907;51.574;6.502;2023-02-07T13:34:10;8.38;;;6.57;;
76157;SDS011;64907;51.574;6.502;2023-02-07T13:36:41;10.68;;;6.95;;
76157;SDS011;64907;51.574;6.502;2023-02-07T13:47:18;8.70;;;5.85;;
76157;SDS011;64907;51.574;6.502;2023-02-07T13:49:52;9.73;;;6.60;;
76157;SDS011;64907;51.574;6.502;2023-02-07T13:52:26;6.85;;;6.05;;
76157;SDS011;64907;51.574;6.502;2023-02-07T14:00:19;6.38;;;5.40;;
76157;SDS011;64907;51.574;6.502;2023-02-07T14:02:48;9.57;;;5.30;;
76157;SDS011;64907;51.574;6.502;2023-02-07T14:05:24;8.38;;;5.72;;
76157;SDS011;64907;51.574;6.502;2023-02-07T14:07:57;7.53;;;6.00;;
76157;SDS011;64907;51.574;6.502;2023-02-07T14:13:29;9.48;;;5.78;;
76157;SDS011;64907;51.574;6.502;2023-02-07T14:18:38;9.85;;;5.97;;
76157;SDS011;64907;51.574;6.502;2023-02-07T14:31:49;10.10;;;5.97;;
76157;SDS011;64907;51.574;6.502;2023-02-07T14:34:16;6.65;;;5.60;;
76157;SDS011;64907;51.574;6.502;2023-02-07T14:36:44;7.97;;;5.75;;
76157;SDS011;64907;51.574;6.502;2023-02-07T14:41:36;6.85;;;6.10;;
76157;SDS011;64907;51.574;6.502;2023-02-07T14:44:02;9.23;;;6.22;;
76157;SDS011;64907;51.574;6.502;2023-02-07T14:46:31;9.93;;;6.57;;
76157;SDS011;64907;51.574;6.502;2023-02-07T14:59:27;8.30;;;6.00;;
76157;SDS011;64907;51.574;6.502;2023-02-07T15:01:53;9.30;;;6.43;;
76157;SDS011;64907;51.574;6.502;2023-02-07T15:04:18;6.15;;;5.55;;
76157;SDS011;64907;51.574;6.502;2023-02-07T15:06:44;9.43;;;6.13;;
76157;SDS011;64907;51.574;6.502;2023-02-07T15:09:17;6.57;;;5.97;;
76157;SDS011;64907;51.574;6.502;2023-02-07T15:11:50;6.95;;;6.00;;
76157;SDS011;64907;51.574;6.502;2023-02-07T15:14:26;7.68;;;5.72;;
76157;SDS011;64907;51.574;6.502;2023-02-07T15:16:52;7.05;;;6.20;;
76157;SDS011;64907;51.574;6.502;2023-02-07T15:21:46;11.50;;;6.18;;
76157;SDS011;64907;51.574;6.502;2023-02-07T15:26:40;7.75;;;6.53;;
76157;SDS011;64907;51.574;6.502;2023-02-07T15:29:06;11.20;;;6.65;;
76157;SDS011;64907;51.574;6.502;2023-02-07T15:31:42;10.07;;;6.82;;
76157;SDS011;64907;51.574;6.502;2023-02-07T15:34:13;10.68;;;6.38;;
76157;SDS011;64907;51.574;6.502;2023-02-07T15:36:42;10.70;;;7.00;;
76157;SDS011;64907;51.574;6.502;2023-02-07T15:39:20;7.50;;;6.00;;
76157;SDS011;64907;51.574;6.502;2023-02-07T15:49:08;8.48;;;6.28;;
76157;SDS011;64907;51.574;6.502;2023-02-07T15:51:35;8.37;;;5.60;;
76157;SDS011;64907;51.574;6.502;2023-02-07T15:54:02;6.47;;;5.70;;
76157;SDS011;64907;51.574;6.502;2023-02-07T15:56:27;6.40;;;5.40;;
76157;SDS011;64907;51.574;6.502;2023-02-07T15:58:54;7.78;;;5.88;;
76157;SDS011;64907;51.574;6.502;2023-02-07T16:01:23;6.93;;;5.13;;
76157;SDS011;64907;51.574;6.502;2023-02-07T16:03:48;9.55;;;5.82;;
76157;SDS011;64907;51.574;6.502;2023-02-07T16:08:42;7.80;;;5.43;;
76157;SDS011;64907;51.574;6.502;2023-02-07T16:11:12;6.30;;;5.25;;
76157;SDS011;64907;51.574;6.502;2023-02-07T16:16:32;7.10;;;5.50;;
76157;SDS011;64907;51.574;6.502;2023-02-07T16:19:13;9.95;;;6.30;;
76157;SDS011;64907;51.574;6.502;2023-02-07T16:21:40;6.68;;;6.07;;
76157;SDS011;64907;51.574;6.502;2023-02-07T16:24:07;6.43;;;5.53;;
76157;SDS011;64907;51.574;6.502;2023-02-07T16:29:03;7.10;;;5.88;;
76157;SDS011;64907;51.574;6.502;2023-02-07T16:31:37;7.82;;;6.30;;
76157;SDS011;64907;51.574;6.502;2023-02-07T16:34:02;8.25;;;6.05;;
76157;SDS011;64907;51.574;6.502;2023-02-07T16:36:27;8.60;;;6.30;;
76157;SDS011;64907;51.574;6.502;2023-02-07T16:39:01;9.88;;;6.72;;
76157;SDS011;64907;51.574;6.502;2023-02-07T16:41:30;9.63;;;5.63;;
76157;SDS011;64907;51.574;6.502;2023-02-07T16:44:00;10.25;;;6.63;;
76157;SDS011;64907;51.574;6.502;2023-02-07T16:46:25;8.75;;;6.75;;
76157;SDS011;64907;51.574;6.502;2023-02-07T16:48:51;8.60;;;6.45;;
76157;SDS011;64907;51.574;6.502;2023-02-07T16:51:16;9.52;;;5.95;;